Aérodrome :
LOGIN :

S'inscrire | Disclaimer

   EN    FR    IT 

 










Légende :    VFR   VFR Marginal   IFR   IFR Intensif   IFR Très Intensif
Visi : 
Plafond : 
>= 8 km
>= 3000ft
5 à 8 km
1000 à 3000 ft
1500m à 5 km
500 à 1000 ft
800 à 1500m
200 à 500 ft
< 800m
< 200 ft
Symboles :   Orages  Brouillard  Fortes neiges  Fortes précipitations  Vent > 20 kt
SIGMETs :   Divers  Orages  Givrage  Turbulence  Onde Orograph.  Cendres Volcan.






- Altitude de l'aérodrome : 856 ft
- Code IATA : VGO


LEVX - Vigo Peinador

DERNIER METAR :
  • 162100Z 18008KT 130V210 9000 BKN012 BKN023 09/07 Q1016 TEMPO 3000 DZ BKN010

METARs EXPIRÉS :
  • 162030Z 18007KT 140V210 9999 SCT015 BKN024 09/07 Q1016 TEMPO 3000 DZ BKN010
  • 162000Z 18005KT 120V230 9999 BKN016 BKN021 09/07 Q1017 TEMPO 3000 DZ BKN010
  • 161930Z 19007KT 9999 BKN019 BKN025 09/07 Q1017 TEMPO 3000 DZ BKN010
  • 161900Z 18006KT 140V210 9999 BKN025 09/07 Q1017 NOSIG
  • 161830Z 18005KT 140V210 9999 BKN024 09/07 Q1017 NOSIG
  • 161800Z 18004KT 140V220 9999 BKN027 09/07 Q1017 NOSIG

TAF TAF LEVX
Valide du 16 à 18h jusqu'au 17 à 18h UTC


161700Z 1618/1718 20007KT 9000 SCT015 BKN025 TX12/1713Z TN07/1706Z
TEMPO 1618/1710 3000 -RA BR BKN010
TEMPO 1619/1709 1200 BCFG BKN005
PROB40
TEMPO 1619/1708 0800 BCFG BKN003
PROB30
TEMPO 1621/1708 0350 RA FG VV001
BECMG 1705/1709 32010KT



MET'MAP, la Météo Aéronautique d'un coup d'oeil ! - Copyright ORBIFLY Décembre 2007 - Disclaimer

ORBIFLY MET'MAP TEAM :

Programmation & Développement : Alexandra Zaïnal
Conception & Développement : Baudouin d'Aumeries
Co-Programmation & Développement : Marc-Olivier Méhu
Soutien technique & logistique : Manuel Goepfert

Contact : metmap@orbifly.com




SOURCES & CREDITS :

   NOAA